AUA872 LGRP-LOWW
Flight info
| Callsign | AUA872 |
|---|---|
| Flight time | 2h 10m |
| Altitude | 38000 |
| Route | VANES UM601 ADESO UN133 PEREN UL863 EVIVI DCT OKANA DCT PARAK DCT BALUX DCT TORNO DCT NATEX NATEX2W |
| Aircraft | A20N/M-SDE2E3FGHIJ1RWXY/LB1 |
Departure
| Time | 2026-04-25 16:31 |
|---|---|
| Airport | Rhodes International Airport "Diagoras" (LGRP) |
Arrival
| Time | 2026-04-25 18:42 |
|---|---|
| Airport | Vienna International Airport (LOWW) |
| Time | Latitude | Longitude | Altitude | Speed | Heading |
|---|---|---|---|---|---|
| 2026-04-25 16:12 | 36.40363 | 28.09141 | 38 ft | 0 kts | 160° |
| 2026-04-25 16:23 | 36.40366 | 28.09140 | 38 ft | 2 kts | 159° |
| 2026-04-25 16:23 | 36.40382 | 28.09130 | 38 ft | 2 kts | 163° |
| 2026-04-25 16:23 | 36.40398 | 28.09124 | 37 ft | 2 kts | 159° |
| 2026-04-25 16:24 | 36.40416 | 28.09117 | 36 ft | 2 kts | 186° |
| 2026-04-25 16:24 | 36.40433 | 28.09127 | 36 ft | 2 kts | 231° |
| 2026-04-25 16:24 | 36.40438 | 28.09139 | 36 ft | 1 kts | 256° |
| 2026-04-25 16:24 | 36.40440 | 28.09144 | 36 ft | 0 kts | 250° |
| 2026-04-25 16:25 | 36.40440 | 28.09143 | 36 ft | 0 kts | 250° |
| 2026-04-25 16:26 | 36.40436 | 28.09130 | 35 ft | 2 kts | 250° |
| 2026-04-25 16:26 | 36.40423 | 28.09088 | 35 ft | 5 kts | 248° |
| 2026-04-25 16:27 | 36.40403 | 28.09018 | 35 ft | 8 kts | 255° |
| 2026-04-25 16:27 | 36.40396 | 28.08922 | 34 ft | 10 kts | 274° |
| 2026-04-25 16:27 | 36.40400 | 28.08791 | 32 ft | 14 kts | 258° |
| 2026-04-25 16:27 | 36.40364 | 28.08639 | 30 ft | 16 kts | 248° |
| 2026-04-25 16:28 | 36.40309 | 28.08469 | 27 ft | 18 kts | 250° |
| 2026-04-25 16:28 | 36.40253 | 28.08277 | 24 ft | 20 kts | 249° |
| 2026-04-25 16:28 | 36.40195 | 28.08073 | 24 ft | 20 kts | 249° |
| 2026-04-25 16:28 | 36.40136 | 28.07876 | 24 ft | 20 kts | 249° |
| 2026-04-25 16:29 | 36.40079 | 28.07682 | 24 ft | 20 kts | 251° |
| 2026-04-25 16:29 | 36.40022 | 28.07491 | 25 ft | 19 kts | 251° |
| 2026-04-25 16:29 | 36.39968 | 28.07307 | 27 ft | 18 kts | 248° |
| 2026-04-25 16:29 | 36.39918 | 28.07136 | 29 ft | 17 kts | 251° |
| 2026-04-25 16:30 | 36.39908 | 28.06972 | 30 ft | 16 kts | 314° |
| 2026-04-25 16:30 | 36.40023 | 28.06924 | 27 ft | 15 kts | 21° |
| 2026-04-25 16:30 | 36.40057 | 28.06992 | 27 ft | 0 kts | 70° |
| 2026-04-25 16:30 | 36.40107 | 28.07166 | 26 ft | 63 kts | 69° |
| 2026-04-25 16:31 | 36.40432 | 28.08259 | 33 ft | 151 kts | 68° |
| 2026-04-25 16:31 | 36.40874 | 28.09729 | 917 ft | 151 kts | 70° |
| 2026-04-25 16:31 | 36.41340 | 28.11208 | 1926 ft | 153 kts | 65° |
| 2026-04-25 16:31 | 36.42006 | 28.12687 | 2714 ft | 172 kts | 59° |
| 2026-04-25 16:32 | 36.43267 | 28.13771 | 3435 ft | 204 kts | 11° |
| 2026-04-25 16:32 | 36.45038 | 28.12991 | 4173 ft | 240 kts | 318° |
| 2026-04-25 16:32 | 36.45907 | 28.10524 | 4801 ft | 272 kts | 268° |
| 2026-04-25 16:32 | 36.45316 | 28.07675 | 5753 ft | 284 kts | 244° |
| 2026-04-25 16:33 | 36.44430 | 28.04897 | 6957 ft | 291 kts | 246° |
| 2026-04-25 16:33 | 36.43700 | 28.02106 | 8225 ft | 294 kts | 249° |
| 2026-04-25 16:33 | 36.43076 | 27.99199 | 9455 ft | 298 kts | 251° |
| 2026-04-25 16:33 | 36.42534 | 27.96345 | 10568 ft | 302 kts | 252° |
| 2026-04-25 16:34 | 36.41983 | 27.93296 | 11460 ft | 314 kts | 252° |
| 2026-04-25 16:34 | 36.41425 | 27.90105 | 12521 ft | 320 kts | 253° |
| 2026-04-25 16:34 | 36.40863 | 27.86838 | 13633 ft | 324 kts | 253° |
| 2026-04-25 16:34 | 36.40317 | 27.83510 | 14651 ft | 330 kts | 254° |
| 2026-04-25 16:35 | 36.39777 | 27.80225 | 15587 ft | 335 kts | 254° |
| 2026-04-25 16:35 | 36.39204 | 27.76826 | 16536 ft | 341 kts | 254° |
| 2026-04-25 16:35 | 36.38786 | 27.73361 | 17424 ft | 350 kts | 263° |
| 2026-04-25 16:35 | 36.38897 | 27.69675 | 18327 ft | 359 kts | 274° |
| 2026-04-25 16:36 | 36.39331 | 27.66066 | 19228 ft | 363 kts | 277° |
| 2026-04-25 16:36 | 36.39484 | 27.64910 | 19505 ft | 365 kts | 277° |
| 2026-04-25 16:36 | 36.40282 | 27.58908 | 20869 ft | 373 kts | 277° |
| 2026-04-25 16:36 | 36.40755 | 27.55249 | 21689 ft | 377 kts | 277° |
| 2026-04-25 16:37 | 36.41233 | 27.51482 | 22512 ft | 381 kts | 277° |
| 2026-04-25 16:37 | 36.41719 | 27.47602 | 23303 ft | 387 kts | 277° |
| 2026-04-25 16:37 | 36.42202 | 27.43719 | 24087 ft | 391 kts | 277° |
| 2026-04-25 16:37 | 36.42681 | 27.39865 | 24815 ft | 396 kts | 277° |
| 2026-04-25 16:38 | 36.43166 | 27.35945 | 25517 ft | 401 kts | 277° |
| 2026-04-25 16:38 | 36.43646 | 27.32050 | 26203 ft | 405 kts | 277° |
| 2026-04-25 16:38 | 36.44144 | 27.27996 | 26905 ft | 409 kts | 277° |
| 2026-04-25 16:38 | 36.44644 | 27.23900 | 27548 ft | 414 kts | 277° |
| 2026-04-25 16:39 | 36.45164 | 27.19641 | 28158 ft | 418 kts | 277° |
| 2026-04-25 16:39 | 36.45676 | 27.15420 | 28763 ft | 422 kts | 277° |
| 2026-04-25 16:39 | 36.46196 | 27.11149 | 29333 ft | 426 kts | 277° |
| 2026-04-25 16:39 | 36.46714 | 27.06860 | 29864 ft | 429 kts | 277° |
| 2026-04-25 16:40 | 36.47245 | 27.02488 | 30395 ft | 432 kts | 277° |
| 2026-04-25 16:40 | 36.47781 | 26.98096 | 30834 ft | 435 kts | 277° |
| 2026-04-25 16:40 | 36.48333 | 26.93568 | 31298 ft | 437 kts | 277° |
| 2026-04-25 16:40 | 36.48882 | 26.89047 | 31759 ft | 438 kts | 277° |
| 2026-04-25 16:41 | 36.49429 | 26.84484 | 32333 ft | 435 kts | 277° |
| 2026-04-25 16:41 | 36.49785 | 26.81484 | 32763 ft | 432 kts | 277° |
| 2026-04-25 16:41 | 36.51035 | 26.70893 | 34121 ft | 423 kts | 277° |
| 2026-04-25 16:42 | 36.51562 | 26.66390 | 34472 ft | 425 kts | 277° |
| 2026-04-25 16:42 | 36.52114 | 26.61897 | 34861 ft | 425 kts | 281° |
| 2026-04-25 16:42 | 36.53177 | 26.57573 | 35212 ft | 426 kts | 293° |
| 2026-04-25 16:42 | 36.54892 | 26.53649 | 35588 ft | 426 kts | 304° |
| 2026-04-25 16:43 | 36.57192 | 26.50211 | 35992 ft | 425 kts | 316° |
| 2026-04-25 16:43 | 36.59991 | 26.47388 | 36374 ft | 425 kts | 327° |
| 2026-04-25 16:43 | 36.63205 | 26.45222 | 36681 ft | 427 kts | 335° |
| 2026-04-25 16:43 | 36.66552 | 26.43300 | 36934 ft | 430 kts | 336° |
| 2026-04-25 16:44 | 36.69997 | 26.41341 | 37222 ft | 431 kts | 335° |
| 2026-04-25 16:44 | 36.73395 | 26.39382 | 37539 ft | 432 kts | 335° |
| 2026-04-25 16:44 | 36.76812 | 26.37391 | 37862 ft | 431 kts | 335° |
| 2026-04-25 16:44 | 36.80175 | 26.35420 | 37920 ft | 431 kts | 335° |
| 2026-04-25 16:45 | 36.86941 | 26.31441 | 37929 ft | 431 kts | 335° |
| 2026-04-25 16:45 | 36.93692 | 26.27457 | 37941 ft | 432 kts | 335° |
| 2026-04-25 16:46 | 37.00549 | 26.23388 | 37932 ft | 432 kts | 334° |
| 2026-04-25 16:46 | 37.05038 | 26.20655 | 37932 ft | 432 kts | 334° |
| 2026-04-25 16:47 | 37.14084 | 26.15124 | 37940 ft | 431 kts | 334° |
| 2026-04-25 16:47 | 37.20829 | 26.10992 | 37928 ft | 431 kts | 334° |
| 2026-04-25 16:48 | 37.27586 | 26.06847 | 37946 ft | 431 kts | 334° |
| 2026-04-25 16:48 | 37.34289 | 26.02728 | 37952 ft | 431 kts | 334° |
| 2026-04-25 16:49 | 37.40947 | 25.98626 | 37954 ft | 431 kts | 334° |
| 2026-04-25 16:49 | 37.47589 | 25.94522 | 37961 ft | 431 kts | 334° |
| 2026-04-25 16:50 | 37.53134 | 25.91092 | 37952 ft | 431 kts | 334° |
| 2026-04-25 16:50 | 37.60986 | 25.86227 | 37944 ft | 430 kts | 335° |
| 2026-04-25 16:51 | 37.67635 | 25.82108 | 37955 ft | 430 kts | 335° |
| 2026-04-25 16:51 | 37.72041 | 25.79371 | 37952 ft | 430 kts | 335° |
| 2026-04-25 16:52 | 37.80918 | 25.73838 | 37981 ft | 429 kts | 334° |
| 2026-04-25 16:52 | 37.87645 | 25.69634 | 37982 ft | 429 kts | 335° |
| 2026-04-25 16:53 | 37.97779 | 25.63284 | 37983 ft | 429 kts | 335° |
| 2026-04-25 16:54 | 38.04521 | 25.59051 | 37985 ft | 428 kts | 335° |
| 2026-04-25 16:54 | 38.11292 | 25.54786 | 37990 ft | 429 kts | 335° |
| 2026-04-25 16:55 | 38.18021 | 25.50543 | 37975 ft | 429 kts | 335° |
| 2026-04-25 16:55 | 38.24755 | 25.46286 | 37993 ft | 429 kts | 335° |
| 2026-04-25 16:56 | 38.31556 | 25.41977 | 37990 ft | 428 kts | 335° |
| 2026-04-25 16:56 | 38.38285 | 25.37706 | 38004 ft | 427 kts | 335° |
| 2026-04-25 16:57 | 38.44986 | 25.33441 | 37981 ft | 427 kts | 335° |
| 2026-04-25 16:57 | 38.51700 | 25.29160 | 37996 ft | 427 kts | 335° |
| 2026-04-25 16:58 | 38.58455 | 25.24843 | 38002 ft | 426 kts | 335° |
| 2026-04-25 16:58 | 38.65253 | 25.20493 | 38009 ft | 427 kts | 335° |
| 2026-04-25 16:59 | 38.71944 | 25.16200 | 38000 ft | 426 kts | 335° |
| 2026-04-25 16:59 | 38.78549 | 25.11951 | 38037 ft | 425 kts | 336° |
| 2026-04-25 17:00 | 38.85107 | 25.07729 | 37995 ft | 425 kts | 336° |
| 2026-04-25 17:00 | 38.91656 | 25.03496 | 37997 ft | 425 kts | 336° |
| 2026-04-25 17:01 | 38.98212 | 24.99254 | 37999 ft | 424 kts | 336° |
| 2026-04-25 17:01 | 39.04786 | 24.94988 | 38008 ft | 424 kts | 336° |
| 2026-04-25 17:02 | 39.11332 | 24.90754 | 38004 ft | 424 kts | 337° |
| 2026-04-25 17:02 | 39.17845 | 24.86737 | 38007 ft | 422 kts | 338° |
| 2026-04-25 17:03 | 39.24299 | 24.82748 | 38010 ft | 422 kts | 337° |
| 2026-04-25 17:03 | 39.30791 | 24.78713 | 38003 ft | 422 kts | 337° |
| 2026-04-25 17:04 | 39.37244 | 24.74692 | 38006 ft | 421 kts | 337° |
| 2026-04-25 17:04 | 39.43696 | 24.70658 | 38013 ft | 421 kts | 338° |
| 2026-04-25 17:05 | 39.49044 | 24.67309 | 38010 ft | 420 kts | 338° |
| 2026-04-25 17:05 | 39.59717 | 24.60634 | 38007 ft | 420 kts | 338° |
| 2026-04-25 17:06 | 39.66172 | 24.56577 | 38008 ft | 419 kts | 338° |
| 2026-04-25 17:06 | 39.72601 | 24.52528 | 38007 ft | 419 kts | 338° |
| 2026-04-25 17:07 | 39.79019 | 24.48477 | 38001 ft | 419 kts | 338° |
| 2026-04-25 17:07 | 39.85413 | 24.44432 | 38009 ft | 418 kts | 338° |
| 2026-04-25 17:08 | 39.91784 | 24.40392 | 38023 ft | 418 kts | 338° |
| 2026-04-25 17:08 | 39.98159 | 24.36341 | 38018 ft | 418 kts | 338° |
| 2026-04-25 17:09 | 40.04414 | 24.32360 | 38012 ft | 417 kts | 337° |
| 2026-04-25 17:09 | 40.10609 | 24.28408 | 38015 ft | 417 kts | 337° |
| 2026-04-25 17:10 | 40.16620 | 24.24564 | 38012 ft | 417 kts | 337° |
| 2026-04-25 17:10 | 40.22582 | 24.20745 | 38006 ft | 416 kts | 337° |
| 2026-04-25 17:11 | 40.28592 | 24.16890 | 38002 ft | 416 kts | 337° |
| 2026-04-25 17:11 | 40.34548 | 24.13060 | 38000 ft | 415 kts | 337° |
| 2026-04-25 17:12 | 40.40497 | 24.09224 | 38008 ft | 415 kts | 337° |
| 2026-04-25 17:12 | 40.46461 | 24.05371 | 38006 ft | 414 kts | 337° |
| 2026-04-25 17:13 | 40.50438 | 24.02797 | 38001 ft | 415 kts | 337° |
| 2026-04-25 17:13 | 40.58305 | 23.97696 | 37999 ft | 414 kts | 337° |
| 2026-04-25 17:14 | 40.64218 | 23.93943 | 38003 ft | 413 kts | 338° |
| 2026-04-25 17:14 | 40.70209 | 23.90200 | 38006 ft | 413 kts | 338° |
| 2026-04-25 17:15 | 40.76150 | 23.86468 | 38005 ft | 413 kts | 338° |
| 2026-04-25 17:15 | 40.82095 | 23.82720 | 38128 ft | 412 kts | 338° |
| 2026-04-25 17:16 | 40.88011 | 23.78980 | 38014 ft | 410 kts | 338° |
| 2026-04-25 17:16 | 40.93924 | 23.75235 | 38004 ft | 410 kts | 338° |
| 2026-04-25 17:17 | 40.99818 | 23.71495 | 38001 ft | 409 kts | 338° |
| 2026-04-25 17:17 | 41.05710 | 23.67748 | 38005 ft | 409 kts | 338° |
| 2026-04-25 17:18 | 41.11530 | 23.64037 | 38017 ft | 408 kts | 338° |
| 2026-04-25 17:18 | 41.17200 | 23.60414 | 38026 ft | 408 kts | 338° |
| 2026-04-25 17:19 | 41.22906 | 23.56762 | 38035 ft | 408 kts | 338° |
| 2026-04-25 17:19 | 41.28557 | 23.53142 | 38040 ft | 408 kts | 338° |
| 2026-04-25 17:20 | 41.34182 | 23.49521 | 38039 ft | 407 kts | 337° |
| 2026-04-25 17:20 | 41.39761 | 23.45925 | 38036 ft | 407 kts | 337° |
| 2026-04-25 17:21 | 41.45346 | 23.42309 | 38028 ft | 407 kts | 337° |
| 2026-04-25 17:21 | 41.50933 | 23.38670 | 38018 ft | 407 kts | 337° |
| 2026-04-25 17:22 | 41.55553 | 23.35656 | 38020 ft | 407 kts | 337° |
| 2026-04-25 17:22 | 41.62042 | 23.31412 | 38027 ft | 406 kts | 336° |
| 2026-04-25 17:23 | 41.67640 | 23.27742 | 38028 ft | 405 kts | 336° |
| 2026-04-25 17:23 | 41.73165 | 23.24113 | 38026 ft | 404 kts | 336° |
| 2026-04-25 17:24 | 41.78714 | 23.20461 | 38035 ft | 404 kts | 336° |
| 2026-04-25 17:24 | 41.84289 | 23.16787 | 38035 ft | 404 kts | 336° |
| 2026-04-25 17:25 | 41.89851 | 23.13112 | 38038 ft | 405 kts | 336° |
| 2026-04-25 17:25 | 41.95478 | 23.09386 | 38036 ft | 403 kts | 336° |
| 2026-04-25 17:26 | 42.01073 | 23.05675 | 38027 ft | 403 kts | 335° |
| 2026-04-25 17:26 | 42.06664 | 23.01960 | 38022 ft | 403 kts | 335° |
| 2026-04-25 17:27 | 42.12248 | 22.98241 | 38023 ft | 403 kts | 335° |
| 2026-04-25 17:27 | 42.15862 | 22.95830 | 38027 ft | 402 kts | 335° |
| 2026-04-25 17:28 | 42.23093 | 22.90997 | 38036 ft | 402 kts | 335° |
| 2026-04-25 17:28 | 42.28579 | 22.87324 | 38036 ft | 402 kts | 335° |
| 2026-04-25 17:29 | 42.34123 | 22.83601 | 38036 ft | 402 kts | 335° |
| 2026-04-25 17:29 | 42.39613 | 22.79910 | 38035 ft | 401 kts | 335° |
| 2026-04-25 17:30 | 42.45113 | 22.76205 | 38033 ft | 400 kts | 335° |
| 2026-04-25 17:30 | 42.50609 | 22.72494 | 38030 ft | 400 kts | 335° |
| 2026-04-25 17:31 | 42.56124 | 22.68762 | 38030 ft | 400 kts | 335° |
| 2026-04-25 17:31 | 42.61639 | 22.65024 | 38032 ft | 400 kts | 335° |
| 2026-04-25 17:32 | 42.67170 | 22.61266 | 38037 ft | 400 kts | 334° |
| 2026-04-25 17:32 | 42.72675 | 22.57517 | 38041 ft | 399 kts | 334° |
| 2026-04-25 17:33 | 42.78229 | 22.53723 | 38043 ft | 400 kts | 334° |
| 2026-04-25 17:33 | 42.83864 | 22.49871 | 38050 ft | 400 kts | 334° |
| 2026-04-25 17:34 | 42.89489 | 22.46053 | 38049 ft | 400 kts | 334° |
| 2026-04-25 17:34 | 42.95100 | 22.42247 | 38050 ft | 399 kts | 334° |
| 2026-04-25 17:35 | 43.00710 | 22.38426 | 38055 ft | 399 kts | 334° |
| 2026-04-25 17:35 | 43.06303 | 22.34606 | 38051 ft | 399 kts | 334° |
| 2026-04-25 17:36 | 43.11781 | 22.30855 | 38048 ft | 399 kts | 333° |
| 2026-04-25 17:36 | 43.17205 | 22.27135 | 38033 ft | 397 kts | 334° |
| 2026-04-25 17:37 | 43.22601 | 22.23429 | 38025 ft | 397 kts | 333° |
| 2026-04-25 17:37 | 43.27982 | 22.19726 | 38020 ft | 397 kts | 333° |
| 2026-04-25 17:38 | 43.31533 | 22.17275 | 38019 ft | 397 kts | 333° |
| 2026-04-25 17:38 | 43.38647 | 22.12357 | 38021 ft | 396 kts | 333° |
| 2026-04-25 17:39 | 43.43951 | 22.08681 | 38022 ft | 396 kts | 333° |
| 2026-04-25 17:39 | 43.49283 | 22.04981 | 38026 ft | 395 kts | 333° |
| 2026-04-25 17:40 | 43.54504 | 22.01353 | 38027 ft | 395 kts | 333° |
| 2026-04-25 17:40 | 43.59787 | 21.97671 | 38032 ft | 394 kts | 333° |
| 2026-04-25 17:41 | 43.65065 | 21.93985 | 38036 ft | 394 kts | 333° |
| 2026-04-25 17:41 | 43.70274 | 21.90342 | 38036 ft | 394 kts | 333° |
| 2026-04-25 17:42 | 43.75581 | 21.86620 | 38033 ft | 394 kts | 333° |
| 2026-04-25 17:42 | 43.80844 | 21.82926 | 38030 ft | 394 kts | 332° |
| 2026-04-25 17:43 | 43.86175 | 21.79172 | 38031 ft | 393 kts | 332° |
| 2026-04-25 17:43 | 43.91542 | 21.75388 | 38034 ft | 393 kts | 332° |
| 2026-04-25 17:44 | 43.96937 | 21.71576 | 38034 ft | 392 kts | 332° |
| 2026-04-25 17:44 | 44.02332 | 21.67755 | 38031 ft | 392 kts | 332° |
| 2026-04-25 17:45 | 44.05922 | 21.65209 | 38029 ft | 392 kts | 332° |
| 2026-04-25 17:45 | 44.12952 | 21.60212 | 38024 ft | 391 kts | 332° |
| 2026-04-25 17:46 | 44.18064 | 21.56570 | 38019 ft | 391 kts | 332° |
| 2026-04-25 17:46 | 44.23171 | 21.52925 | 38018 ft | 391 kts | 331° |
| 2026-04-25 17:47 | 44.28350 | 21.49220 | 38016 ft | 391 kts | 332° |
| 2026-04-25 17:47 | 44.33493 | 21.45535 | 38010 ft | 391 kts | 331° |
| 2026-04-25 17:48 | 44.41186 | 21.40008 | 37999 ft | 390 kts | 331° |
| 2026-04-25 17:49 | 44.46293 | 21.36328 | 37992 ft | 390 kts | 331° |
| 2026-04-25 17:49 | 44.51441 | 21.32610 | 37996 ft | 390 kts | 330° |
| 2026-04-25 17:50 | 44.56601 | 21.28877 | 38001 ft | 390 kts | 330° |
| 2026-04-25 17:50 | 44.61742 | 21.25151 | 37998 ft | 390 kts | 330° |
| 2026-04-25 17:51 | 44.66938 | 21.21379 | 38001 ft | 390 kts | 330° |
| 2026-04-25 17:51 | 44.72149 | 21.17590 | 37994 ft | 389 kts | 330° |
| 2026-04-25 17:52 | 44.77343 | 21.13803 | 37990 ft | 389 kts | 330° |
| 2026-04-25 17:52 | 44.82606 | 21.09959 | 37986 ft | 388 kts | 330° |
| 2026-04-25 17:53 | 44.87809 | 21.06148 | 37984 ft | 388 kts | 330° |
| 2026-04-25 17:53 | 44.93063 | 21.02295 | 37984 ft | 388 kts | 329° |
| 2026-04-25 17:54 | 44.98269 | 20.98468 | 37981 ft | 388 kts | 329° |
| 2026-04-25 17:54 | 45.03506 | 20.94610 | 37980 ft | 388 kts | 329° |
| 2026-04-25 17:55 | 45.07893 | 20.91375 | 37978 ft | 387 kts | 329° |
| 2026-04-25 17:55 | 45.13913 | 20.86923 | 37978 ft | 388 kts | 329° |
| 2026-04-25 17:56 | 45.18986 | 20.83162 | 37975 ft | 388 kts | 329° |
| 2026-04-25 17:56 | 45.24099 | 20.79364 | 37974 ft | 388 kts | 329° |
| 2026-04-25 17:57 | 45.29172 | 20.75588 | 37975 ft | 388 kts | 329° |
| 2026-04-25 17:57 | 45.34279 | 20.71781 | 37970 ft | 388 kts | 329° |
| 2026-04-25 17:58 | 45.39384 | 20.67969 | 37961 ft | 388 kts | 329° |
| 2026-04-25 17:58 | 45.44526 | 20.64118 | 37959 ft | 388 kts | 329° |
| 2026-04-25 17:59 | 45.49687 | 20.60245 | 37959 ft | 388 kts | 329° |
| 2026-04-25 17:59 | 45.54874 | 20.56346 | 37967 ft | 388 kts | 329° |
| 2026-04-25 18:00 | 45.59177 | 20.53105 | 37975 ft | 388 kts | 329° |
| 2026-04-25 18:00 | 45.65203 | 20.48554 | 37972 ft | 388 kts | 329° |
| 2026-04-25 18:01 | 45.70444 | 20.44587 | 37966 ft | 388 kts | 329° |
| 2026-04-25 18:01 | 45.75642 | 20.40648 | 37965 ft | 388 kts | 328° |
| 2026-04-25 18:02 | 45.80873 | 20.36673 | 37964 ft | 388 kts | 328° |
| 2026-04-25 18:02 | 45.86058 | 20.32722 | 37964 ft | 388 kts | 328° |
| 2026-04-25 18:03 | 45.91208 | 20.28792 | 37966 ft | 388 kts | 328° |
| 2026-04-25 18:03 | 45.96344 | 20.24865 | 37975 ft | 388 kts | 327° |
| 2026-04-25 18:04 | 46.01488 | 20.20921 | 37976 ft | 388 kts | 327° |
| 2026-04-25 18:04 | 46.06617 | 20.16978 | 37978 ft | 388 kts | 327° |
| 2026-04-25 18:05 | 46.11668 | 20.13088 | 37979 ft | 388 kts | 327° |
| 2026-04-25 18:05 | 46.16665 | 20.09231 | 37974 ft | 388 kts | 327° |
| 2026-04-25 18:06 | 46.21672 | 20.05246 | 37970 ft | 388 kts | 326° |
| 2026-04-25 18:06 | 46.26617 | 20.01274 | 37968 ft | 388 kts | 326° |
| 2026-04-25 18:07 | 46.31610 | 19.97256 | 37968 ft | 387 kts | 327° |
| 2026-04-25 18:07 | 46.36596 | 19.93240 | 37967 ft | 387 kts | 327° |
| 2026-04-25 18:08 | 46.41528 | 19.89262 | 37959 ft | 387 kts | 327° |
| 2026-04-25 18:08 | 46.46517 | 19.85227 | 37956 ft | 387 kts | 326° |
| 2026-04-25 18:09 | 46.51520 | 19.81175 | 37951 ft | 387 kts | 326° |
| 2026-04-25 18:09 | 46.56488 | 19.77138 | 37950 ft | 387 kts | 326° |
| 2026-04-25 18:10 | 46.61431 | 19.73113 | 37949 ft | 387 kts | 326° |
| 2026-04-25 18:10 | 46.66354 | 19.69099 | 37947 ft | 387 kts | 326° |
| 2026-04-25 18:11 | 46.71346 | 19.65019 | 37945 ft | 388 kts | 326° |
| 2026-04-25 18:11 | 46.76322 | 19.60944 | 37945 ft | 388 kts | 326° |
| 2026-04-25 18:12 | 46.81307 | 19.56852 | 37942 ft | 388 kts | 326° |
| 2026-04-25 18:12 | 46.86321 | 19.52727 | 37943 ft | 388 kts | 326° |
| 2026-04-25 18:13 | 46.91340 | 19.48589 | 37942 ft | 388 kts | 326° |
| 2026-04-25 18:13 | 46.96355 | 19.44448 | 37939 ft | 387 kts | 326° |
| 2026-04-25 18:14 | 47.03888 | 19.38203 | 37937 ft | 387 kts | 326° |
| 2026-04-25 18:14 | 47.08924 | 19.34018 | 37933 ft | 387 kts | 325° |
| 2026-04-25 18:15 | 47.13821 | 19.29939 | 37934 ft | 388 kts | 325° |
| 2026-04-25 18:15 | 47.18741 | 19.25831 | 37941 ft | 388 kts | 325° |
| 2026-04-25 18:16 | 47.23657 | 19.21719 | 37943 ft | 389 kts | 325° |
| 2026-04-25 18:17 | 47.30750 | 19.14898 | 37939 ft | 382 kts | 315° |
| 2026-04-25 18:17 | 47.34599 | 19.08907 | 37256 ft | 378 kts | 304° |
| 2026-04-25 18:17 | 47.36200 | 19.05482 | 36646 ft | 373 kts | 299° |
| 2026-04-25 18:18 | 47.37564 | 19.01809 | 36035 ft | 368 kts | 294° |
| 2026-04-25 18:18 | 47.38749 | 18.98110 | 35437 ft | 366 kts | 293° |
| 2026-04-25 18:18 | 47.39918 | 18.94385 | 34833 ft | 366 kts | 293° |
| 2026-04-25 18:18 | 47.41085 | 18.90649 | 34255 ft | 368 kts | 293° |
| 2026-04-25 18:19 | 47.42267 | 18.86867 | 33702 ft | 370 kts | 293° |
| 2026-04-25 18:19 | 47.43468 | 18.83007 | 33139 ft | 369 kts | 293° |
| 2026-04-25 18:19 | 47.44659 | 18.79178 | 32581 ft | 367 kts | 293° |
| 2026-04-25 18:19 | 47.45877 | 18.75262 | 32008 ft | 364 kts | 293° |
| 2026-04-25 18:20 | 47.46677 | 18.72682 | 31631 ft | 362 kts | 293° |
| 2026-04-25 18:20 | 47.48284 | 18.67495 | 30905 ft | 359 kts | 292° |
| 2026-04-25 18:20 | 47.49498 | 18.63567 | 30354 ft | 357 kts | 292° |
| 2026-04-25 18:20 | 47.50716 | 18.59615 | 29784 ft | 354 kts | 293° |
| 2026-04-25 18:21 | 47.51933 | 18.55665 | 29202 ft | 351 kts | 293° |
| 2026-04-25 18:21 | 47.53145 | 18.51714 | 28629 ft | 348 kts | 292° |
| 2026-04-25 18:21 | 47.54227 | 18.47697 | 28050 ft | 345 kts | 289° |
| 2026-04-25 18:21 | 47.55126 | 18.43664 | 27474 ft | 341 kts | 287° |
| 2026-04-25 18:22 | 47.55969 | 18.39729 | 26918 ft | 340 kts | 287° |
| 2026-04-25 18:22 | 47.56251 | 18.38403 | 26729 ft | 339 kts | 287° |
| 2026-04-25 18:22 | 47.57650 | 18.31837 | 25784 ft | 335 kts | 286° |
| 2026-04-25 18:22 | 47.58479 | 18.27934 | 25220 ft | 333 kts | 286° |
| 2026-04-25 18:23 | 47.59295 | 18.24085 | 24660 ft | 330 kts | 286° |
| 2026-04-25 18:23 | 47.60101 | 18.20279 | 24106 ft | 328 kts | 286° |
| 2026-04-25 18:23 | 47.60897 | 18.16509 | 23556 ft | 326 kts | 286° |
| 2026-04-25 18:23 | 47.61674 | 18.12822 | 23016 ft | 324 kts | 286° |
| 2026-04-25 18:24 | 47.62436 | 18.09203 | 22481 ft | 321 kts | 287° |
| 2026-04-25 18:24 | 47.63174 | 18.05681 | 21954 ft | 319 kts | 287° |
| 2026-04-25 18:24 | 47.63896 | 18.02235 | 21432 ft | 317 kts | 287° |
| 2026-04-25 18:24 | 47.64616 | 17.98812 | 20920 ft | 315 kts | 287° |
| 2026-04-25 18:25 | 47.65357 | 17.95438 | 20411 ft | 313 kts | 288° |
| 2026-04-25 18:25 | 47.66092 | 17.92110 | 19884 ft | 311 kts | 288° |
| 2026-04-25 18:25 | 47.66823 | 17.88787 | 19362 ft | 309 kts | 288° |
| 2026-04-25 18:25 | 47.67535 | 17.85524 | 18865 ft | 307 kts | 288° |
| 2026-04-25 18:26 | 47.68236 | 17.82304 | 18374 ft | 304 kts | 288° |
| 2026-04-25 18:26 | 47.68944 | 17.79044 | 17873 ft | 303 kts | 288° |
| 2026-04-25 18:26 | 47.69627 | 17.75901 | 17354 ft | 303 kts | 288° |
| 2026-04-25 18:26 | 47.70310 | 17.72746 | 16911 ft | 301 kts | 288° |
| 2026-04-25 18:27 | 47.70977 | 17.69662 | 16435 ft | 299 kts | 288° |
| 2026-04-25 18:27 | 47.71640 | 17.66591 | 15984 ft | 297 kts | 288° |
| 2026-04-25 18:27 | 47.72306 | 17.63496 | 15530 ft | 295 kts | 288° |
| 2026-04-25 18:27 | 47.72958 | 17.60460 | 15075 ft | 293 kts | 289° |
| 2026-04-25 18:28 | 47.73609 | 17.57426 | 14612 ft | 292 kts | 288° |
| 2026-04-25 18:28 | 47.74252 | 17.54431 | 14152 ft | 290 kts | 289° |
| 2026-04-25 18:28 | 47.74897 | 17.51414 | 13681 ft | 289 kts | 289° |
| 2026-04-25 18:29 | 47.76170 | 17.45451 | 12734 ft | 286 kts | 289° |
| 2026-04-25 18:29 | 47.76801 | 17.42489 | 12262 ft | 285 kts | 289° |
| 2026-04-25 18:30 | 47.78464 | 17.34670 | 11008 ft | 282 kts | 288° |
| 2026-04-25 18:30 | 47.79275 | 17.30840 | 10387 ft | 280 kts | 288° |
| 2026-04-25 18:30 | 47.79882 | 17.27967 | 9920 ft | 279 kts | 288° |
| 2026-04-25 18:30 | 47.80485 | 17.25113 | 9454 ft | 278 kts | 288° |
| 2026-04-25 18:31 | 47.81088 | 17.22253 | 8981 ft | 277 kts | 288° |
| 2026-04-25 18:31 | 47.81682 | 17.19429 | 8517 ft | 276 kts | 288° |
| 2026-04-25 18:31 | 47.82280 | 17.16591 | 8051 ft | 274 kts | 288° |
| 2026-04-25 18:31 | 47.82864 | 17.13811 | 7595 ft | 273 kts | 288° |
| 2026-04-25 18:32 | 47.83443 | 17.11051 | 7203 ft | 269 kts | 288° |
| 2026-04-25 18:32 | 47.84016 | 17.08318 | 6882 ft | 263 kts | 288° |
| 2026-04-25 18:32 | 47.84571 | 17.05661 | 6612 ft | 257 kts | 288° |
| 2026-04-25 18:32 | 47.85116 | 17.03052 | 6357 ft | 257 kts | 288° |
| 2026-04-25 18:33 | 47.85667 | 17.00415 | 6090 ft | 257 kts | 288° |
| 2026-04-25 18:33 | 47.86216 | 16.97777 | 5772 ft | 255 kts | 288° |
| 2026-04-25 18:33 | 47.86763 | 16.95141 | 5445 ft | 255 kts | 288° |
| 2026-04-25 18:33 | 47.87307 | 16.92525 | 5133 ft | 252 kts | 288° |
| 2026-04-25 18:34 | 47.87839 | 16.89959 | 4818 ft | 250 kts | 289° |
| 2026-04-25 18:34 | 47.88374 | 16.87380 | 4506 ft | 247 kts | 289° |
| 2026-04-25 18:34 | 47.88907 | 16.84809 | 4177 ft | 248 kts | 289° |
| 2026-04-25 18:34 | 47.89440 | 16.82229 | 3874 ft | 248 kts | 289° |
| 2026-04-25 18:35 | 47.89971 | 16.79656 | 3562 ft | 246 kts | 289° |
| 2026-04-25 18:35 | 47.90494 | 16.77120 | 3250 ft | 243 kts | 289° |
| 2026-04-25 18:35 | 47.91006 | 16.74633 | 3006 ft | 240 kts | 289° |
| 2026-04-25 18:35 | 47.91516 | 16.72150 | 2989 ft | 233 kts | 288° |
| 2026-04-25 18:36 | 47.91996 | 16.69806 | 2989 ft | 215 kts | 289° |
| 2026-04-25 18:36 | 47.92459 | 16.67671 | 2978 ft | 197 kts | 298° |
| 2026-04-25 18:36 | 47.93407 | 16.66151 | 3019 ft | 176 kts | 324° |
| 2026-04-25 18:36 | 47.94507 | 16.65345 | 3069 ft | 150 kts | 334° |
| 2026-04-25 18:37 | 47.95517 | 16.64835 | 2993 ft | 130 kts | 336° |
| 2026-04-25 18:37 | 47.96430 | 16.64425 | 2989 ft | 125 kts | 337° |
| 2026-04-25 18:37 | 47.97315 | 16.64037 | 2854 ft | 125 kts | 337° |
| 2026-04-25 18:37 | 47.98190 | 16.63662 | 2683 ft | 124 kts | 337° |
| 2026-04-25 18:38 | 47.99044 | 16.63297 | 2511 ft | 123 kts | 337° |
| 2026-04-25 18:38 | 47.99902 | 16.62933 | 2345 ft | 123 kts | 337° |
| 2026-04-25 18:38 | 48.00763 | 16.62569 | 2181 ft | 123 kts | 337° |
| 2026-04-25 18:38 | 48.01622 | 16.62206 | 2015 ft | 122 kts | 336° |
| 2026-04-25 18:39 | 48.02480 | 16.61845 | 1847 ft | 122 kts | 336° |
| 2026-04-25 18:39 | 48.03327 | 16.61487 | 1683 ft | 121 kts | 336° |
| 2026-04-25 18:39 | 48.04179 | 16.61127 | 1516 ft | 121 kts | 336° |
| 2026-04-25 18:39 | 48.05029 | 16.60767 | 1348 ft | 121 kts | 337° |
| 2026-04-25 18:40 | 48.05896 | 16.60400 | 1180 ft | 121 kts | 338° |
| 2026-04-25 18:40 | 48.06775 | 16.60026 | 1007 ft | 120 kts | 338° |
| 2026-04-25 18:40 | 48.07631 | 16.59664 | 842 ft | 120 kts | 339° |
| 2026-04-25 18:40 | 48.08492 | 16.59293 | 673 ft | 120 kts | 339° |
| 2026-04-25 18:41 | 48.09332 | 16.58922 | 594 ft | 108 kts | 341° |
| 2026-04-25 18:41 | 48.10008 | 16.58648 | 600 ft | 81 kts | 338° |
| 2026-04-25 18:41 | 48.10503 | 16.58429 | 600 ft | 63 kts | 340° |
| 2026-04-25 18:41 | 48.10932 | 16.58254 | 596 ft | 53 kts | 340° |
| 2026-04-25 18:42 | 48.11301 | 16.58101 | 592 ft | 47 kts | 343° |
| 2026-04-25 18:42 | 48.11415 | 16.58046 | 592 ft | 44 kts | 348° |
| 2026-04-25 18:42 | 48.11764 | 16.57908 | 592 ft | 10 kts | 342° |
| 2026-04-25 18:42 | 48.11833 | 16.57839 | 592 ft | 10 kts | 314° |
| 2026-04-25 18:43 | 48.11861 | 16.57720 | 592 ft | 11 kts | 270° |
| 2026-04-25 18:43 | 48.11843 | 16.57587 | 592 ft | 11 kts | 255° |
| 2026-04-25 18:43 | 48.11820 | 16.57455 | 593 ft | 11 kts | 256° |
| 2026-04-25 18:43 | 48.11815 | 16.57337 | 596 ft | 9 kts | 290° |
| 2026-04-25 18:44 | 48.11843 | 16.57242 | 597 ft | 9 kts | 295° |
| 2026-04-25 18:44 | 48.11892 | 16.57158 | 597 ft | 10 kts | 305° |
| 2026-04-25 18:44 | 48.11930 | 16.57046 | 595 ft | 11 kts | 297° |
| 2026-04-25 18:44 | 48.11973 | 16.56918 | 592 ft | 14 kts | 296° |
| 2026-04-25 18:45 | 48.11975 | 16.56834 | 591 ft | 8 kts | 217° |
| 2026-04-25 18:45 | 48.11931 | 16.56795 | 593 ft | 5 kts | 208° |
| 2026-04-25 18:45 | 48.11904 | 16.56775 | 595 ft | 2 kts | 206° |
| 2026-04-25 18:45 | 48.11895 | 16.56769 | 595 ft | 0 kts | 207° |